Little Canada, Minnesota
Current Conditions -  °F | °C
As of 3:53 AM on Thursday 23 Oct 2014 (Local Time) from KSTP Reporting Station
Light Rain Light Rain  
Wind Chill: 50°   Ceiling: 1800
Heat Index: 50°   Visibility: 4mi
Dew Point: 48°   Wind: 6mph
Humidity: 93%   Direction: 130°SE
Pressure: 30.02"   Gusts: NA
Location:  44.9981°N, 93.0983°W
Report Text: KSTP 230853Z AUTO 13005KT 4SM -RA BR OVC018 10/09 A3002 RMK AO2 RAB03 SLP164 P0007 60009 T01000089 58005
Loading
Personal Weather Stations






























Interactive Weather Map
Tropical Storm Tracking
New forecast layout! Learn more

10-Day Weather Forecast

Advertisements
Track Severe Weather on mobile